METAR AND TAF INFORMATION
METAR FOR K33N
ADDS - METARS form results

(1520 UTC 20 January 2019)
Data provider http://aviationweather.gov/metar/data/
 
METAR text: K33N 201515Z AUTO 27015G22KT 3SM BR BKN009 OVC013 10/09 A2932 RMK A01
Conditions at: K33N (DOVER/CHESWOLD , DE, US) observed 1515 UTC 20 January 2019
Temperature: 10.0°C (50°F)
Dewpoint: 9.0°C (48°F) [RH = 93%]
Pressure (altimeter): 29.32 inches Hg (993.0 mb)
Winds: from the W (270 degrees) at 17 MPH (15 knots; 7.7 m/s)
gusting to 25 MPH (22 knots; 11.3 m/s)
Visibility: 3 miles ( 5 km)
Ceiling: 900 feet AGL
Clouds: broken clouds at 900 feet AGL
overcast cloud deck at 1300 feet AGL
Weather: BR  (mist)

METAR text: K33N 201455Z AUTO 28015G23KT 2SM BR BKN011 BKN017 OVC022 10/09 A2930 RMK A01
Conditions at: K33N (DOVER/CHESWOLD , DE, US) observed 1455 UTC 20 January 2019
Temperature: 10.0°C (50°F)
Dewpoint: 9.0°C (48°F) [RH = 93%]
Pressure (altimeter): 29.30 inches Hg (992.3 mb)
Winds: from the W (280 degrees) at 17 MPH (15 knots; 7.7 m/s)
gusting to 26 MPH (23 knots; 11.8 m/s)
Visibility: 2.00 miles (3.22 km)
Ceiling: 1100 feet AGL
Clouds: broken clouds at 1100 feet AGL
broken clouds at 1700 feet AGL
overcast cloud deck at 2200 feet AGL
Weather: BR  (mist)

METAR text: K33N 201435Z AUTO 23014G24KT 9SM SCT014 OVC022 14/12 A2928 RMK A01
Conditions at: K33N (DOVER/CHESWOLD , DE, US) observed 1435 UTC 20 January 2019
Temperature: 14.0°C (57°F)
Dewpoint: 12.0°C (54°F) [RH = 88%]
Pressure (altimeter): 29.28 inches Hg (991.6 mb)
Winds: from the SW (230 degrees) at 16 MPH (14 knots; 7.2 m/s)
gusting to 28 MPH (24 knots; 12.3 m/s)
Visibility: 9 miles (14 km)
Ceiling: 2200 feet AGL
Clouds: scattered clouds at 1400 feet AGL
overcast cloud deck at 2200 feet AGL
Weather: automated observation with no human augmentation;
there may or may not be significant weather present at this time

 AIRPORT MAP

Esri Leaflet Quickstart
 RUNWAY INFORMATION
Runway 09 Runway length 3582 ft Runway width 60 ft
Runway elevation 54 ft Runway displaced threshold 1005 ft Runway heading 73
Runway 27 Runway length 3582 ft Runway width 60 ft
Runway elevation 44 ft Runway displaced threshold 350 ft Runway heading 253

 AIRPORT FREQUENCIES
Type APP Name DOVER APP Frequency 132.425 MHZ
Type CLD Name CLNC DEL Frequency 125.55 MHZ
Type DEP Name DOVER DEP Frequency 32.3 MHZ
Type RDO Name MILLVILLE Frequency 111.4 MHZ
Type UNIC Name CTAF/UNICO Frequency 123 MHZ

 AIRPORT NEAR NAVIGATION AIDS



Powered by Virtual Airlines Manager [v2.6.2]